Hainesport, New Jersey
Current Conditions -  °F | °C
As of 10:54 PM on Saturday 24 Jan 2015 (Local Time) from KVAY Reporting Station
Clear Clear  
Wind Chill: 28°   Ceiling: Unl
Heat Index: 36°   Visibility: 10mi
Dew Point: 24°   Wind: 10mph
Humidity: 62%   Direction: 280°W
Pressure: 29.55"   Gusts: 21mph
Location:  39.98°N, 74.83°W
Report Text: KVAY 250354Z AUTO 28009G18KT 10SM CLR 02/M04 A2955 RMK AO2 SLP008 T00221044
Loading
Personal Weather Stations






























Interactive Weather Map New forecast layout! Learn more

10-Day Weather Forecast

Advertisements
Track Severe Weather on mobile